Impacts TAF Board INFO
FOR SITUATIONAL AWARENESS. NOT TO BE USED FOR FLIGHT PLANNING PURPOSES.
IDs:

KORD - Chicago/O'Hare Intl, IL, US

Issued at 1512 UTC 18 Nov 2017
Updated at 1541 UTC 18 Nov 2017
Potential Impact None Slight Moderate High
Time1509Z 18/16Z 18/17Z 18/18Z 18/19Z 18/20Z 18/21Z 18/22Z 18/23Z 19/00Z 19/01Z 19/02Z 19/03Z 19/04Z>>
Type OBS PRVL PRVL PRVL PRVL PRVL PRVL PRVL PRVL PRVL PRVL PRVL PRVL PRVL
VIS 6 2 2 2 2 5 5 >6 >6 >6 >6 >6 >6 >6
CIG 9 6 6 6 6 15 15 25 25 25 25 25 25 25
Cover OVC OVC OVC OVC OVC OVC OVC BKN BKN BKN BKN BKN BKN BKN
FltCat IFR IFR IFR IFR IFR MVFR MVFR MVFR MVFR MVFR MVFR MVFR MVFR MVFR
WX -RA BR RA BR RA BR RA BR RA BR -RA -RA -- -- -- -- -- -- --
WDir 10 360 360 360 360 340 340 330 330 330 330 330 330 330
WSpd 14 16 16 16 16 19 19 18 18 18 18 18 18 18
WGst -- 27 27 27 27 30 30 28 28 28 28 28 28 28

Raw TAF
KORD 181512Z 1815/1918 36016G27KT 2SM RA BR BKN006 OVC012
  FM182000 34019G30KT 5SM -RA BKN015 OVC025
  FM182200 33018G28KT P6SM BKN025
  FM190600 32013G20KT P6SM SCT025
  FM191200 30012KT P6SM SCT150


Raw METAR
KORD 181509Z 01014KT 6SM -RA BR OVC009 05/03 A2947 RMK AO2 P0001 T00500033
KORD 181451Z 36014G22KT 4SM -RA BR BKN007 OVC011 06/03 A2948 RMK AO2 SLP986 P0006 60014 T00560033 55001
KORD 181413Z 01012KT 4SM -RA BR OVC007 06/04 A2947 RMK AO2 P0003 T00560039
KORD 181351Z 02014KT 6SM -RA BR OVC007 06/04 A2947 RMK AO2 SLP981 P0003 T00610039
KORD 181305Z 02011KT 5SM RA BR BKN009 OVC013 06/04 A2946 RMK AO2 P0000 T00610039
KORD 181251Z 02012KT 4SM -RA BR OVC006 06/04 A2948 RMK AO2 LTG DSNT SW RAB29 SLP985 P0005 T00610044
KORD 181239Z 03013G19KT 4SM +RA BR OVC006 06/04 A2948 RMK AO2 LTG DSNT SW RAB29 P0002 T00610039

METAR Board
Radar Display
Forecast Discussion

FOR SITUATIONAL AWARENESS. NOT TO BE USED FOR FLIGHT PLANNING PURPOSES.